createdAt,value
2022-07-29T00:00:52.094Z,85.58
2022-07-29T00:03:18.585Z,86.61
2022-07-29T00:05:45.104Z,86.09
2022-07-29T00:08:12.672Z,86.53
2022-07-29T00:10:39.627Z,86.22
2022-07-29T00:13:06.164Z,86.95
2022-07-29T00:15:32.644Z,85.68
2022-07-29T00:17:59.055Z,86.82
2022-07-29T00:20:25.614Z,86.43
2022-07-29T00:22:52.085Z,86.87
2022-07-29T00:25:18.556Z,86.27
2022-07-29T00:27:46.709Z,85.84
2022-07-29T00:30:13.536Z,85.65
2022-07-29T00:32:40.022Z,85.38
2022-07-29T00:35:25.954Z,85.42
2022-07-29T00:37:52.460Z,85.21
2022-07-29T00:40:18.931Z,85.98
2022-07-29T00:42:53.746Z,86.53
2022-07-29T00:45:20.670Z,86.50
2022-07-29T00:47:47.567Z,87.62
2022-07-29T00:50:14.961Z,87.77
2022-07-29T00:52:42.899Z,88.75
2022-07-29T00:55:12.083Z,89.30
2022-07-29T00:57:39.447Z,89.12
2022-07-29T01:00:07.730Z,89.59
2022-07-29T01:02:34.512Z,90.16
2022-07-29T01:05:02.696Z,91.18
2022-07-29T01:07:30.871Z,91.09
2022-07-29T01:09:58.045Z,91.25
2022-07-29T01:12:27.631Z,91.79
2022-07-29T01:14:56.243Z,90.94
2022-07-29T01:17:26.647Z,91.67
2022-07-29T01:20:02.421Z,92.25
2022-07-29T01:22:37.471Z,92.02
2022-07-29T01:25:41.393Z,92.38
2022-07-29T01:28:37.140Z,92.79
2022-07-29T01:31:07.962Z,93.87
2022-07-29T01:33:51.053Z,94.29
2022-07-29T01:36:23.895Z,95.62
2022-07-29T01:39:00.682Z,97.23
2022-07-29T01:41:30.525Z,98.31
2022-07-29T01:44:12.639Z,97.99
2022-07-29T01:46:42.510Z,98.79
2022-07-29T01:49:16.933Z,99.39
2022-07-29T01:51:51.356Z,99.06
2022-07-29T01:54:27.037Z,100.00
2022-07-29T01:56:57.685Z,100.00
2022-07-29T01:59:26.249Z,100.00
2022-07-29T02:01:56.043Z,100.00
2022-07-29T02:04:29.164Z,100.00
2022-07-29T02:07:02.891Z,100.00
2022-07-29T02:09:32.535Z,100.00
2022-07-29T02:12:02.126Z,100.00
2022-07-29T02:14:34.017Z,100.00
2022-07-29T02:17:01.683Z,100.00
2022-07-29T02:19:30.439Z,100.00
2022-07-29T02:21:59.701Z,100.00
2022-07-29T02:24:27.292Z,100.00
2022-07-29T02:26:55.970Z,100.00
2022-07-29T02:29:24.662Z,100.00
2022-07-29T02:31:52.468Z,100.00
2022-07-29T02:34:21.731Z,100.00
2022-07-29T02:36:50.390Z,100.00
2022-07-29T02:39:18.502Z,100.00
2022-07-29T02:41:51.083Z,100.00
2022-07-29T02:44:20.544Z,100.00
2022-07-29T02:47:03.048Z,100.00
2022-07-29T02:50:03.161Z,100.00
2022-07-29T02:52:40.954Z,100.00
2022-07-29T02:55:20.133Z,100.00
2022-07-29T02:58:29.258Z,100.00
2022-07-29T03:01:04.289Z,100.00
2022-07-29T03:03:36.856Z,100.00
2022-07-29T03:06:05.225Z,100.00
2022-07-29T03:08:33.228Z,100.00
2022-07-29T03:11:01.631Z,100.00
2022-07-29T03:13:30.350Z,100.00
2022-07-29T03:15:58.743Z,100.00
2022-07-29T03:18:26.700Z,100.00
2022-07-29T03:20:53.523Z,100.00
2022-07-29T03:23:23.577Z,100.00
2022-07-29T03:25:53.585Z,100.00
2022-07-29T03:28:21.686Z,100.00
2022-07-29T03:30:48.851Z,100.00
2022-07-29T03:33:15.442Z,100.00
2022-07-29T03:35:42.260Z,100.00
2022-07-29T03:38:09.146Z,100.00
2022-07-29T03:40:47.480Z,100.00
2022-07-29T03:43:16.500Z,100.00
2022-07-29T03:45:46.684Z,100.00
2022-07-29T03:48:16.346Z,100.00
2022-07-29T03:50:43.328Z,100.00
2022-07-29T03:53:09.814Z,100.00
2022-07-29T03:55:45.741Z,100.00
2022-07-29T03:58:14.047Z,100.00
2022-07-29T04:00:41.774Z,100.00
2022-07-29T04:03:10.669Z,100.00
2022-07-29T04:05:38.531Z,100.00
2022-07-29T04:08:05.354Z,100.00
2022-07-29T04:10:34.144Z,100.00
2022-07-29T04:13:02.249Z,100.00
2022-07-29T04:15:31.499Z,100.00
2022-07-29T04:17:59.000Z,100.00
2022-07-29T04:20:25.492Z,100.00
2022-07-29T04:22:51.924Z,100.00
2022-07-29T04:25:18.374Z,100.00
2022-07-29T04:28:01.126Z,100.00
2022-07-29T04:30:28.247Z,100.00
2022-07-29T04:32:54.658Z,100.00
2022-07-29T04:35:21.436Z,100.00
2022-07-29T04:37:47.988Z,100.00
2022-07-29T04:40:14.901Z,100.00
2022-07-29T04:42:46.368Z,100.00
2022-07-29T04:45:13.603Z,100.00
2022-07-29T04:47:41.861Z,100.00
2022-07-29T04:50:09.921Z,100.00
2022-07-29T04:52:36.440Z,100.00
2022-07-29T04:55:04.089Z,100.00
2022-07-29T04:57:30.508Z,100.00
2022-07-29T04:59:56.922Z,100.00
2022-07-29T05:02:23.423Z,100.00
2022-07-29T05:04:49.968Z,100.00
2022-07-29T05:07:16.415Z,100.00
2022-07-29T05:09:42.877Z,100.00
2022-07-29T05:12:09.679Z,100.00
2022-07-29T05:14:36.095Z,100.00
2022-07-29T05:17:02.753Z,100.00
2022-07-29T05:19:29.216Z,100.00
2022-07-29T05:21:55.619Z,100.00
2022-07-29T05:24:22.095Z,100.00
2022-07-29T05:26:48.550Z,100.00
2022-07-29T05:29:43.960Z,100.00
2022-07-29T05:32:01.552Z,100.00
2022-07-29T05:34:27.992Z,100.00
2022-07-29T05:36:54.485Z,100.00
2022-07-29T05:39:21.419Z,100.00
2022-07-29T05:41:51.860Z,100.00
2022-07-29T05:44:18.931Z,98.08
2022-07-29T05:46:45.613Z,98.88
2022-07-29T05:49:12.447Z,96.55
2022-07-29T05:51:53.784Z,95.89
2022-07-29T05:54:21.908Z,97.61
2022-07-29T05:56:48.350Z,96.45
2022-07-29T05:59:18.239Z,96.21
2022-07-29T06:01:44.923Z,94.13
2022-07-29T06:04:11.486Z,93.20
2022-07-29T06:06:37.996Z,92.34
2022-07-29T06:09:12.058Z,93.06
2022-07-29T06:11:39.477Z,92.19
2022-07-29T06:14:06.101Z,92.89
2022-07-29T06:16:32.725Z,92.39
2022-07-29T06:18:59.192Z,92.46
2022-07-29T06:21:25.774Z,94.54
2022-07-29T06:23:52.470Z,95.87
2022-07-29T06:26:18.916Z,97.43
2022-07-29T06:28:57.354Z,99.27
2022-07-29T06:31:23.865Z,98.46
2022-07-29T06:33:50.363Z,98.58
2022-07-29T06:36:16.816Z,98.56
2022-07-29T06:38:49.201Z,98.10
2022-07-29T06:41:18.069Z,96.18
2022-07-29T06:43:51.772Z,95.10
2022-07-29T06:46:20.832Z,93.33
2022-07-29T06:48:48.661Z,94.28
2022-07-29T06:51:15.484Z,93.30
2022-07-29T06:54:00.071Z,91.87
2022-07-29T06:56:31.604Z,91.66
2022-07-29T06:58:58.314Z,92.12
2022-07-29T07:01:24.757Z,92.02
2022-07-29T07:03:51.340Z,91.04
2022-07-29T07:06:17.831Z,90.24
2022-07-29T07:08:44.637Z,87.76
2022-07-29T07:11:11.205Z,88.94
2022-07-29T07:13:37.632Z,87.24
2022-07-29T07:16:05.319Z,86.51
2022-07-29T07:18:32.001Z,84.73
2022-07-29T07:20:58.728Z,83.90
2022-07-29T07:23:25.855Z,81.73
2022-07-29T07:25:52.459Z,81.76
2022-07-29T07:28:19.254Z,81.70
2022-07-29T07:30:52.053Z,80.46
2022-07-29T07:33:18.494Z,76.89
2022-07-29T07:35:45.329Z,77.27
2022-07-29T07:38:11.839Z,74.08
2022-07-29T07:40:38.394Z,73.31
2022-07-29T07:43:04.839Z,73.32
2022-07-29T07:45:33.552Z,75.00
2022-07-29T07:48:00.370Z,74.49
2022-07-29T07:50:27.014Z,71.86
2022-07-29T07:52:55.942Z,68.72
2022-07-29T07:55:22.526Z,67.05
2022-07-29T07:57:48.954Z,67.02
2022-07-29T08:00:17.149Z,66.64
2022-07-29T08:02:44.063Z,68.98
2022-07-29T08:05:12.983Z,64.80
2022-07-29T08:07:39.979Z,61.19
2022-07-29T08:10:06.677Z,62.72
2022-07-29T08:12:33.079Z,63.04
2022-07-29T08:14:59.610Z,62.92
2022-07-29T08:17:26.949Z,62.25
2022-07-29T08:19:53.461Z,60.96
2022-07-29T08:22:19.908Z,60.43
2022-07-29T08:24:56.990Z,61.52
2022-07-29T08:27:42.588Z,59.62
2022-07-29T08:30:11.038Z,59.31
2022-07-29T08:32:53.326Z,58.21
2022-07-29T08:35:22.981Z,56.53
2022-07-29T08:37:49.805Z,55.56
2022-07-29T08:40:16.346Z,52.22
2022-07-29T08:42:42.966Z,49.77
2022-07-29T08:45:09.904Z,48.44
2022-07-29T08:47:40.343Z,48.22
2022-07-29T08:50:08.848Z,47.33
2022-07-29T08:52:38.931Z,45.46
2022-07-29T08:55:07.398Z,46.41
2022-07-29T08:57:34.891Z,48.20
2022-07-29T09:00:11.377Z,50.13
2022-07-29T09:02:46.939Z,50.92
2022-07-29T09:05:14.857Z,50.61
2022-07-29T09:07:44.162Z,50.67
2022-07-29T09:10:11.190Z,49.86
2022-07-29T09:12:38.408Z,48.54
2022-07-29T09:15:05.309Z,46.68
2022-07-29T09:17:46.876Z,46.02
2022-07-29T09:20:16.082Z,44.36
2022-07-29T09:22:42.628Z,45.43
2022-07-29T09:25:09.810Z,43.48
2022-07-29T09:27:36.957Z,41.79
2022-07-29T09:30:11.383Z,41.31
2022-07-29T09:33:04.414Z,40.86
2022-07-29T09:35:31.703Z,40.93
2022-07-29T09:37:58.239Z,41.86
2022-07-29T09:40:27.082Z,43.62
2022-07-29T09:42:57.779Z,42.64
2022-07-29T09:45:32.766Z,42.18
2022-07-29T09:48:03.899Z,41.33
2022-07-29T09:50:38.616Z,43.56
2022-07-29T09:53:05.150Z,45.40
2022-07-29T09:55:31.693Z,44.71
2022-07-29T09:58:27.862Z,44.19
2022-07-29T10:00:55.881Z,43.04
2022-07-29T10:03:23.699Z,43.21
2022-07-29T10:06:10.420Z,42.01
2022-07-29T10:08:37.284Z,41.23
2022-07-29T10:11:14.850Z,42.89
2022-07-29T10:13:43.388Z,42.33
2022-07-29T10:16:10.037Z,42.42
2022-07-29T10:18:39.278Z,42.50
2022-07-29T10:21:06.525Z,41.12
2022-07-29T10:23:46.411Z,39.10
2022-07-29T10:26:15.390Z,38.39
2022-07-29T10:28:41.972Z,37.69
2022-07-29T10:31:20.106Z,37.08
2022-07-29T10:34:02.053Z,36.89
2022-07-29T10:36:46.336Z,38.13
2022-07-29T10:39:41.578Z,38.82
2022-07-29T10:42:33.642Z,38.02
2022-07-29T10:45:02.752Z,37.37
2022-07-29T10:47:31.540Z,38.54
2022-07-29T10:50:05.492Z,37.57
2022-07-29T10:52:55.013Z,37.32
2022-07-29T10:55:49.533Z,37.17
2022-07-29T10:58:18.941Z,36.35
2022-07-29T11:00:48.080Z,37.88
2022-07-29T11:03:50.883Z,38.14
2022-07-29T11:06:26.620Z,38.32
2022-07-29T11:09:20.161Z,38.39
2022-07-29T11:11:51.521Z,38.14
2022-07-29T11:14:19.873Z,37.57
2022-07-29T11:17:01.354Z,37.04
2022-07-29T11:22:33.382Z,35.68
2022-07-29T11:25:19.073Z,35.78
2022-07-29T11:28:22.743Z,36.14
2022-07-29T11:30:51.492Z,37.45
2022-07-29T11:33:54.554Z,37.36
2022-07-29T11:36:17.346Z,37.69
2022-07-29T11:38:44.015Z,37.78
2022-07-29T11:41:23.955Z,39.04
2022-07-29T11:43:54.038Z,39.26
2022-07-29T11:46:55.536Z,39.71
2022-07-29T11:49:31.613Z,40.17
2022-07-29T11:52:02.166Z,39.35
2022-07-29T11:54:52.509Z,37.99
2022-07-29T11:57:22.170Z,37.50
2022-07-29T11:59:48.866Z,38.08
2022-07-29T12:05:10.960Z,37.62
2022-07-29T12:07:39.478Z,38.72
2022-07-29T12:10:11.745Z,38.64
2022-07-29T12:12:53.585Z,39.41
2022-07-29T12:15:24.970Z,39.59
2022-07-29T12:18:12.950Z,39.34
2022-07-29T12:20:39.622Z,39.12
2022-07-29T12:23:09.832Z,38.37
2022-07-29T12:25:38.032Z,37.50
2022-07-29T12:28:07.104Z,38.41
2022-07-29T12:30:48.717Z,37.56
2022-07-29T12:33:29.655Z,37.72
2022-07-29T12:36:12.804Z,37.71
2022-07-29T12:38:44.025Z,37.77
2022-07-29T12:41:11.312Z,37.72
2022-07-29T12:43:38.053Z,38.14
2022-07-29T12:46:15.973Z,37.33
2022-07-29T12:48:44.510Z,37.04
2022-07-29T12:51:13.321Z,37.01
2022-07-29T12:53:40.033Z,37.17
2022-07-29T12:56:40.645Z,37.36
2022-07-29T12:59:13.899Z,37.23
2022-07-29T13:01:40.562Z,37.30
2022-07-29T13:04:07.387Z,37.64
2022-07-29T13:06:46.148Z,38.16
2022-07-29T13:09:18.924Z,38.78
2022-07-29T13:11:49.303Z,39.27
2022-07-29T13:14:33.159Z,38.60
2022-07-29T13:17:28.375Z,38.59
2022-07-29T13:20:13.617Z,38.27
2022-07-29T13:22:42.151Z,38.34
2022-07-29T13:25:09.774Z,38.94
2022-07-29T13:27:39.041Z,38.23
2022-07-29T13:30:07.789Z,37.83
2022-07-29T13:32:38.358Z,38.24
2022-07-29T13:35:07.715Z,38.00
2022-07-29T13:37:35.888Z,38.18
2022-07-29T13:40:04.398Z,37.83
2022-07-29T13:42:32.339Z,38.18
2022-07-29T13:44:59.398Z,37.62
2022-07-29T13:47:32.408Z,38.09
2022-07-29T13:50:06.141Z,37.06
2022-07-29T13:52:33.537Z,38.03
2022-07-29T13:54:59.990Z,37.84
2022-07-29T13:57:26.515Z,36.98
2022-07-29T13:59:54.298Z,37.22
2022-07-29T14:02:21.692Z,36.47
2022-07-29T14:04:53.504Z,36.87
2022-07-29T14:07:19.992Z,36.63
2022-07-29T14:09:46.473Z,35.52
2022-07-29T14:12:13.132Z,36.03
2022-07-29T14:14:39.661Z,36.44
2022-07-29T14:17:07.531Z,36.75
2022-07-29T14:19:38.868Z,35.58
2022-07-29T14:22:07.192Z,35.63
2022-07-29T14:24:34.714Z,35.22
2022-07-29T14:27:05.095Z,34.75
2022-07-29T14:29:37.247Z,35.01
2022-07-29T14:32:06.878Z,35.00
2022-07-29T14:34:34.363Z,35.32
2022-07-29T14:37:00.798Z,35.20
2022-07-29T14:39:27.218Z,35.23
2022-07-29T14:41:59.440Z,34.83
2022-07-29T14:44:31.834Z,34.11
2022-07-29T14:47:00.513Z,33.88
2022-07-29T14:49:27.824Z,34.45
2022-07-29T14:51:54.566Z,34.30
2022-07-29T14:54:21.053Z,34.25
2022-07-29T14:56:47.771Z,33.34
2022-07-29T14:59:14.558Z,33.33
2022-07-29T15:01:44.066Z,33.58
2022-07-29T15:04:10.515Z,33.81
2022-07-29T15:06:37.546Z,33.30
2022-07-29T15:09:04.064Z,33.14
2022-07-29T15:11:30.586Z,32.87
2022-07-29T15:14:03.485Z,32.68
2022-07-29T15:16:30.053Z,32.54
2022-07-29T15:18:58.684Z,32.34
2022-07-29T15:21:27.945Z,32.94
2022-07-29T15:23:54.630Z,32.47
2022-07-29T15:26:21.373Z,32.55
2022-07-29T15:28:48.745Z,32.87
2022-07-29T15:31:15.568Z,32.72
2022-07-29T15:33:42.105Z,32.35
2022-07-29T15:36:08.587Z,32.08
2022-07-29T15:38:35.030Z,32.26
2022-07-29T15:41:08.264Z,32.29
2022-07-29T15:43:36.158Z,31.62
2022-07-29T15:46:21.658Z,31.78
2022-07-29T15:48:48.270Z,31.73
2022-07-29T15:51:15.164Z,31.62
2022-07-29T15:53:41.625Z,31.34
2022-07-29T15:56:08.033Z,31.53
2022-07-29T15:58:34.464Z,31.16
2022-07-29T16:01:00.911Z,31.06
2022-07-29T16:03:27.436Z,31.09
2022-07-29T16:05:53.890Z,30.84
2022-07-29T16:08:20.332Z,31.27
2022-07-29T16:10:46.815Z,31.32
2022-07-29T16:13:17.052Z,30.67
2022-07-29T16:15:46.044Z,31.10
2022-07-29T16:18:30.207Z,31.23
2022-07-29T16:20:57.180Z,31.48
2022-07-29T16:23:24.659Z,31.13
2022-07-29T16:25:59.800Z,31.40
2022-07-29T16:28:27.464Z,31.84
2022-07-29T16:30:53.948Z,32.53
2022-07-29T16:33:20.389Z,33.46
2022-07-29T16:35:46.825Z,33.62
2022-07-29T16:38:13.314Z,33.87
2022-07-29T16:40:39.747Z,33.08
2022-07-29T16:43:06.571Z,34.14
2022-07-29T16:45:42.613Z,34.17
2022-07-29T16:48:13.523Z,33.31
2022-07-29T16:50:41.453Z,32.62
2022-07-29T16:53:10.426Z,33.25
2022-07-29T16:55:36.929Z,33.68
2022-07-29T16:58:03.389Z,34.19
2022-07-29T17:00:29.933Z,34.52
2022-07-29T17:02:56.449Z,34.84
2022-07-29T17:05:23.117Z,34.63
2022-07-29T17:07:49.957Z,33.11
2022-07-29T17:10:16.388Z,33.27
2022-07-29T17:12:42.845Z,34.01
2022-07-29T17:15:11.716Z,34.16
2022-07-29T17:17:56.360Z,32.68
2022-07-29T17:20:23.632Z,32.61
2022-07-29T17:22:50.022Z,31.40
2022-07-29T17:25:21.140Z,30.95
2022-07-29T17:27:50.533Z,28.95
2022-07-29T17:30:17.874Z,29.03
2022-07-29T17:32:44.370Z,28.71
2022-07-29T17:35:29.241Z,29.24
2022-07-29T17:37:55.893Z,29.27
2022-07-29T17:40:22.527Z,29.13
2022-07-29T17:42:49.071Z,29.13
2022-07-29T17:45:15.687Z,29.44
2022-07-29T17:47:42.123Z,29.54
2022-07-29T17:50:08.881Z,29.97
2022-07-29T17:52:35.318Z,29.78
2022-07-29T17:55:02.582Z,29.71
2022-07-29T17:57:29.124Z,31.40
2022-07-29T17:59:55.569Z,33.03
2022-07-29T18:02:22.038Z,33.95
2022-07-29T18:04:51.496Z,35.66
2022-07-29T18:07:18.551Z,36.09
2022-07-29T18:09:45.202Z,36.73
2022-07-29T18:12:11.666Z,37.09
2022-07-29T18:14:38.438Z,37.53
2022-07-29T18:17:04.929Z,37.68
2022-07-29T18:19:31.370Z,37.48
2022-07-29T18:22:03.181Z,37.48
2022-07-29T18:24:31.407Z,38.13
2022-07-29T18:26:58.054Z,38.39
2022-07-29T18:29:24.944Z,38.85
2022-07-29T18:31:51.404Z,38.63
2022-07-29T18:34:17.999Z,39.04
2022-07-29T18:36:45.749Z,38.96
2022-07-29T18:39:13.185Z,39.03
2022-07-29T18:41:50.114Z,39.31
2022-07-29T18:44:18.925Z,39.35
2022-07-29T18:46:47.434Z,39.35
2022-07-29T18:49:14.635Z,40.17
2022-07-29T18:51:41.126Z,40.17
2022-07-29T18:54:09.137Z,40.48
2022-07-29T18:56:35.975Z,41.23
2022-07-29T18:59:03.009Z,41.48
2022-07-29T19:01:31.731Z,42.45
2022-07-29T19:03:58.887Z,42.72
2022-07-29T19:06:25.914Z,42.90
2022-07-29T19:08:53.263Z,43.56
2022-07-29T19:11:19.669Z,43.86
2022-07-29T19:13:46.135Z,44.08
2022-07-29T19:16:14.037Z,44.79
2022-07-29T19:18:41.384Z,45.07
2022-07-29T19:21:07.872Z,45.32
2022-07-29T19:24:00.721Z,45.63
2022-07-29T19:26:21.215Z,45.97
2022-07-29T19:28:48.883Z,46.13
2022-07-29T19:31:15.971Z,46.69
2022-07-29T19:33:42.780Z,46.78
2022-07-29T19:36:09.425Z,47.40
2022-07-29T19:38:38.139Z,47.31
2022-07-29T19:41:06.121Z,47.22
2022-07-29T19:43:50.844Z,47.75
2022-07-29T19:46:19.310Z,47.57
2022-07-29T19:48:45.931Z,48.24
2022-07-29T19:51:12.423Z,48.45
2022-07-29T19:53:38.817Z,48.66
2022-07-29T19:56:05.371Z,48.65
2022-07-29T19:58:35.601Z,48.85
2022-07-29T20:01:02.719Z,49.30
2022-07-29T20:03:36.795Z,49.33
2022-07-29T20:06:03.368Z,49.24
2022-07-29T20:08:29.774Z,49.15
2022-07-29T20:10:56.252Z,49.33
2022-07-29T20:13:22.699Z,49.47
2022-07-29T20:15:49.230Z,48.96
2022-07-29T20:18:16.049Z,49.39
2022-07-29T20:20:42.589Z,49.41
2022-07-29T20:23:09.528Z,49.27
2022-07-29T20:25:36.709Z,49.05
2022-07-29T20:28:03.330Z,49.38
2022-07-29T20:30:29.760Z,50.20
2022-07-29T20:32:57.277Z,50.53
2022-07-29T20:35:23.819Z,51.24
2022-07-29T20:37:52.253Z,51.08
2022-07-29T20:40:23.443Z,51.22
2022-07-29T20:42:49.868Z,51.15
2022-07-29T20:45:16.333Z,51.05
2022-07-29T20:47:42.818Z,52.00
2022-07-29T20:50:10.130Z,51.95
2022-07-29T20:52:36.608Z,52.73
2022-07-29T20:55:03.256Z,52.75
2022-07-29T20:57:39.184Z,52.61
2022-07-29T21:00:07.167Z,52.15
2022-07-29T21:02:33.707Z,52.10
2022-07-29T21:05:00.513Z,51.86
2022-07-29T21:07:26.977Z,52.60
2022-07-29T21:09:53.381Z,52.86
2022-07-29T21:12:19.799Z,53.26
2022-07-29T21:14:49.441Z,53.90
2022-07-29T21:17:16.677Z,54.76
2022-07-29T21:19:43.150Z,55.44
2022-07-29T21:22:09.885Z,57.13
2022-07-29T21:24:36.340Z,57.92
2022-07-29T21:27:21.992Z,61.52
2022-07-29T21:29:48.900Z,63.10
2022-07-29T21:32:29.595Z,63.56
2022-07-29T21:34:56.756Z,63.91
2022-07-29T21:37:23.335Z,64.92
2022-07-29T21:39:49.861Z,65.15
2022-07-29T21:42:16.359Z,65.35
2022-07-29T21:44:42.831Z,64.83
2022-07-29T21:47:09.711Z,65.57
2022-07-29T21:49:36.228Z,64.68
2022-07-29T21:52:04.540Z,64.38
2022-07-29T21:54:31.504Z,64.37
2022-07-29T21:56:58.183Z,64.63
2022-07-29T21:59:24.910Z,65.25
2022-07-29T22:01:51.394Z,66.09
2022-07-29T22:04:17.910Z,66.47
2022-07-29T22:06:44.395Z,66.84
2022-07-29T22:09:10.835Z,66.62
2022-07-29T22:11:37.274Z,66.75
2022-07-29T22:14:05.177Z,66.24
2022-07-29T22:16:31.806Z,65.85
2022-07-29T22:18:58.273Z,65.81
2022-07-29T22:21:24.765Z,65.72
2022-07-29T22:23:51.175Z,65.61
2022-07-29T22:26:17.616Z,65.08
2022-07-29T22:28:44.086Z,65.51
2022-07-29T22:31:10.587Z,65.35
2022-07-29T22:33:37.087Z,65.58
2022-07-29T22:36:03.666Z,65.37
2022-07-29T22:38:30.090Z,66.04
2022-07-29T22:40:58.767Z,66.52
2022-07-29T22:43:27.907Z,66.40
2022-07-29T22:45:54.394Z,67.11
2022-07-29T22:48:20.968Z,67.00
2022-07-29T22:50:47.433Z,67.42
2022-07-29T22:53:13.967Z,67.36
2022-07-29T22:55:40.505Z,67.04
2022-07-29T22:58:06.985Z,66.80
2022-07-29T23:00:33.632Z,67.39
2022-07-29T23:03:00.195Z,67.28
2022-07-29T23:05:26.826Z,67.26
2022-07-29T23:07:53.304Z,67.88
2022-07-29T23:10:20.565Z,67.84
2022-07-29T23:12:46.984Z,68.76
2022-07-29T23:15:13.497Z,69.31
2022-07-29T23:17:39.935Z,69.84
2022-07-29T23:20:07.884Z,70.30
2022-07-29T23:22:35.799Z,71.09
2022-07-29T23:25:02.209Z,70.92
2022-07-29T23:27:28.628Z,71.23
2022-07-29T23:29:55.014Z,71.88
2022-07-29T23:32:21.489Z,71.98
2022-07-29T23:34:47.955Z,71.61
2022-07-29T23:37:14.485Z,71.77
2022-07-29T23:39:40.954Z,71.89
2022-07-29T23:42:07.361Z,72.34
2022-07-29T23:44:33.778Z,72.47
2022-07-29T23:47:00.469Z,72.85
2022-07-29T23:49:27.073Z,73.10
2022-07-29T23:51:53.531Z,73.64
2022-07-29T23:54:19.968Z,73.58
2022-07-29T23:56:46.521Z,73.75
2022-07-29T23:59:13.032Z,73.46
